sensor_id;sensor_type;location;lat;lon;timestamp;P1;durP1;ratioP1;P2;durP2;ratioP2
80400;SDS011;69727;53.132;8.230;2023-05-10T00:00:07;36.80;;;12.95;;
80400;SDS011;69727;53.132;8.230;2023-05-10T00:02:34;37.17;;;14.00;;
80400;SDS011;69727;53.132;8.230;2023-05-10T00:04:59;29.60;;;11.95;;
80400;SDS011;69727;53.132;8.230;2023-05-10T00:07:25;29.63;;;11.52;;
80400;SDS011;69727;53.132;8.230;2023-05-10T00:09:50;28.50;;;10.37;;
80400;SDS011;69727;53.132;8.230;2023-05-10T00:12:16;27.75;;;11.02;;
80400;SDS011;69727;53.132;8.230;2023-05-10T00:14:41;24.38;;;8.73;;
80400;SDS011;69727;53.132;8.230;2023-05-10T00:17:07;30.60;;;12.40;;
80400;SDS011;69727;53.132;8.230;2023-05-10T00:19:32;25.53;;;9.13;;
80400;SDS011;69727;53.132;8.230;2023-05-10T00:21:58;18.48;;;8.55;;
80400;SDS011;69727;53.132;8.230;2023-05-10T00:24:23;22.47;;;9.07;;
80400;SDS011;69727;53.132;8.230;2023-05-10T00:26:48;20.33;;;8.53;;
80400;SDS011;69727;53.132;8.230;2023-05-10T00:29:14;26.45;;;9.45;;
80400;SDS011;69727;53.132;8.230;2023-05-10T00:31:39;19.73;;;8.05;;
80400;SDS011;69727;53.132;8.230;2023-05-10T00:34:05;22.77;;;9.00;;
80400;SDS011;69727;53.132;8.230;2023-05-10T00:36:30;24.55;;;8.50;;
80400;SDS011;69727;53.132;8.230;2023-05-10T00:38:56;26.58;;;8.60;;
80400;SDS011;69727;53.132;8.230;2023-05-10T00:41:21;25.35;;;9.38;;
80400;SDS011;69727;53.132;8.230;2023-05-10T00:43:47;21.42;;;9.20;;
80400;SDS011;69727;53.132;8.230;2023-05-10T00:46:14;25.83;;;11.18;;
80400;SDS011;69727;53.132;8.230;2023-05-10T00:48:40;23.80;;;9.18;;
80400;SDS011;69727;53.132;8.230;2023-05-10T00:51:06;21.67;;;9.38;;
80400;SDS011;69727;53.132;8.230;2023-05-10T00:53:32;20.45;;;9.48;;
80400;SDS011;69727;53.132;8.230;2023-05-10T00:55:59;30.48;;;9.20;;
80400;SDS011;69727;53.132;8.230;2023-05-10T00:58:25;24.42;;;8.73;;
80400;SDS011;69727;53.132;8.230;2023-05-10T01:00:53;22.30;;;9.05;;
80400;SDS011;69727;53.132;8.230;2023-05-10T01:03:20;20.23;;;9.20;;
80400;SDS011;69727;53.132;8.230;2023-05-10T01:05:45;34.33;;;10.70;;
80400;SDS011;69727;53.132;8.230;2023-05-10T01:08:11;20.35;;;8.15;;
80400;SDS011;69727;53.132;8.230;2023-05-10T01:10:36;22.33;;;8.03;;
80400;SDS011;69727;53.132;8.230;2023-05-10T01:13:02;19.63;;;8.07;;
80400;SDS011;69727;53.132;8.230;2023-05-10T01:15:28;18.02;;;7.85;;
80400;SDS011;69727;53.132;8.230;2023-05-10T01:17:54;18.38;;;7.45;;
80400;SDS011;69727;53.132;8.230;2023-05-10T01:20:21;18.33;;;7.35;;
80400;SDS011;69727;53.132;8.230;2023-05-10T01:23:30;22.70;;;8.00;;
80400;SDS011;69727;53.132;8.230;2023-05-10T01:36:27;22.65;;;9.07;;
80400;SDS011;69727;53.132;8.230;2023-05-10T01:41:49;24.42;;;9.02;;
80400;SDS011;69727;53.132;8.230;2023-05-10T01:50:18;21.38;;;7.10;;
80400;SDS011;69727;53.132;8.230;2023-05-10T01:52:48;23.35;;;9.50;;
80400;SDS011;69727;53.132;8.230;2023-05-10T01:55:20;16.98;;;6.78;;
80400;SDS011;69727;53.132;8.230;2023-05-10T01:57:48;20.77;;;7.25;;
80400;SDS011;69727;53.132;8.230;2023-05-10T02:00:19;17.63;;;6.78;;
80400;SDS011;69727;53.132;8.230;2023-05-10T02:02:45;17.58;;;7.50;;
80400;SDS011;69727;53.132;8.230;2023-05-10T02:05:14;20.23;;;7.90;;
80400;SDS011;69727;53.132;8.230;2023-05-10T02:07:41;29.30;;;9.23;;
80400;SDS011;69727;53.132;8.230;2023-05-10T02:10:08;18.50;;;7.65;;
80400;SDS011;69727;53.132;8.230;2023-05-10T02:12:36;21.67;;;7.57;;
80400;SDS011;69727;53.132;8.230;2023-05-10T02:15:06;18.33;;;7.90;;
80400;SDS011;69727;53.132;8.230;2023-05-10T02:17:34;27.10;;;9.93;;
80400;SDS011;69727;53.132;8.230;2023-05-10T02:20:02;20.05;;;8.32;;
80400;SDS011;69727;53.132;8.230;2023-05-10T02:22:29;18.83;;;8.27;;
80400;SDS011;69727;53.132;8.230;2023-05-10T02:24:57;20.88;;;6.80;;
80400;SDS011;69727;53.132;8.230;2023-05-10T02:27:23;24.02;;;7.25;;
80400;SDS011;69727;53.132;8.230;2023-05-10T02:29:50;21.48;;;8.43;;
80400;SDS011;69727;53.132;8.230;2023-05-10T02:32:16;16.10;;;6.68;;
80400;SDS011;69727;53.132;8.230;2023-05-10T02:34:43;16.23;;;7.05;;
80400;SDS011;69727;53.132;8.230;2023-05-10T02:37:11;20.08;;;7.30;;
80400;SDS011;69727;53.132;8.230;2023-05-10T02:39:39;21.98;;;8.07;;
80400;SDS011;69727;53.132;8.230;2023-05-10T02:42:09;24.58;;;7.93;;
80400;SDS011;69727;53.132;8.230;2023-05-10T02:44:38;19.30;;;7.53;;
80400;SDS011;69727;53.132;8.230;2023-05-10T02:47:06;19.70;;;8.02;;
80400;SDS011;69727;53.132;8.230;2023-05-10T02:49:32;18.08;;;7.95;;
80400;SDS011;69727;53.132;8.230;2023-05-10T02:51:58;21.13;;;8.80;;
80400;SDS011;69727;53.132;8.230;2023-05-10T02:54:29;19.55;;;8.30;;
80400;SDS011;69727;53.132;8.230;2023-05-10T02:56:57;24.77;;;9.95;;
80400;SDS011;69727;53.132;8.230;2023-05-10T03:01:51;20.75;;;8.68;;
80400;SDS011;69727;53.132;8.230;2023-05-10T03:04:16;26.90;;;9.23;;
80400;SDS011;69727;53.132;8.230;2023-05-10T03:06:41;26.50;;;9.05;;
80400;SDS011;69727;53.132;8.230;2023-05-10T03:09:07;22.92;;;7.80;;
80400;SDS011;69727;53.132;8.230;2023-05-10T03:19:40;36.28;;;10.82;;
80400;SDS011;69727;53.132;8.230;2023-05-10T03:22:13;17.23;;;8.13;;
80400;SDS011;69727;53.132;8.230;2023-05-10T03:24:46;21.80;;;9.50;;
80400;SDS011;69727;53.132;8.230;2023-05-10T03:27:14;18.10;;;7.78;;
80400;SDS011;69727;53.132;8.230;2023-05-10T03:29:40;19.02;;;8.15;;
80400;SDS011;69727;53.132;8.230;2023-05-10T03:32:07;20.02;;;8.23;;
80400;SDS011;69727;53.132;8.230;2023-05-10T03:34:33;24.13;;;9.48;;
80400;SDS011;69727;53.132;8.230;2023-05-10T03:36:58;27.70;;;7.87;;
80400;SDS011;69727;53.132;8.230;2023-05-10T03:39:24;32.45;;;10.10;;
80400;SDS011;69727;53.132;8.230;2023-05-10T03:41:49;30.58;;;9.90;;
80400;SDS011;69727;53.132;8.230;2023-05-10T03:44:15;28.37;;;11.87;;
80400;SDS011;69727;53.132;8.230;2023-05-10T03:46:40;21.15;;;9.82;;
80400;SDS011;69727;53.132;8.230;2023-05-10T03:49:05;23.67;;;11.83;;
80400;SDS011;69727;53.132;8.230;2023-05-10T03:51:31;36.03;;;10.77;;
80400;SDS011;69727;53.132;8.230;2023-05-10T03:53:56;23.17;;;9.77;;
80400;SDS011;69727;53.132;8.230;2023-05-10T03:56:22;24.20;;;10.30;;
80400;SDS011;69727;53.132;8.230;2023-05-10T03:58:47;31.45;;;10.65;;
80400;SDS011;69727;53.132;8.230;2023-05-10T04:01:12;19.70;;;8.80;;
80400;SDS011;69727;53.132;8.230;2023-05-10T04:03:38;18.33;;;8.68;;
80400;SDS011;69727;53.132;8.230;2023-05-10T04:06:03;24.27;;;10.17;;
80400;SDS011;69727;53.132;8.230;2023-05-10T04:08:29;16.20;;;7.30;;
80400;SDS011;69727;53.132;8.230;2023-05-10T04:11:04;11.00;;;4.90;;
80400;SDS011;69727;53.132;8.230;2023-05-10T04:13:33;12.07;;;5.05;;
80400;SDS011;69727;53.132;8.230;2023-05-10T04:15:59;13.45;;;5.22;;
80400;SDS011;69727;53.132;8.230;2023-05-10T04:18:25;15.18;;;5.53;;
80400;SDS011;69727;53.132;8.230;2023-05-10T04:20:50;15.23;;;5.10;;
80400;SDS011;69727;53.132;8.230;2023-05-10T04:23:16;16.80;;;5.17;;
80400;SDS011;69727;53.132;8.230;2023-05-10T04:25:42;11.55;;;4.50;;
80400;SDS011;69727;53.132;8.230;2023-05-10T04:28:08;12.95;;;5.28;;
80400;SDS011;69727;53.132;8.230;2023-05-10T04:30:33;14.00;;;5.15;;
80400;SDS011;69727;53.132;8.230;2023-05-10T04:32:59;18.73;;;5.07;;
80400;SDS011;69727;53.132;8.230;2023-05-10T04:35:24;17.27;;;5.65;;
80400;SDS011;69727;53.132;8.230;2023-05-10T04:37:50;20.23;;;6.03;;
80400;SDS011;69727;53.132;8.230;2023-05-10T04:40:15;18.00;;;6.20;;
80400;SDS011;69727;53.132;8.230;2023-05-10T04:42:41;18.05;;;6.25;;
80400;SDS011;69727;53.132;8.230;2023-05-10T04:45:06;17.97;;;5.33;;
80400;SDS011;69727;53.132;8.230;2023-05-10T04:47:32;17.92;;;6.53;;
80400;SDS011;69727;53.132;8.230;2023-05-10T04:49:57;21.40;;;5.97;;
80400;SDS011;69727;53.132;8.230;2023-05-10T04:52:23;27.05;;;7.32;;
80400;SDS011;69727;53.132;8.230;2023-05-10T04:54:49;20.83;;;6.10;;
80400;SDS011;69727;53.132;8.230;2023-05-10T04:57:14;31.63;;;7.87;;
80400;SDS011;69727;53.132;8.230;2023-05-10T04:59:40;17.38;;;6.25;;
80400;SDS011;69727;53.132;8.230;2023-05-10T05:02:05;15.60;;;6.28;;
80400;SDS011;69727;53.132;8.230;2023-05-10T05:04:30;16.50;;;5.65;;
80400;SDS011;69727;53.132;8.230;2023-05-10T05:06:56;9.73;;;3.72;;
80400;SDS011;69727;53.132;8.230;2023-05-10T05:09:22;18.38;;;4.90;;
80400;SDS011;69727;53.132;8.230;2023-05-10T05:11:47;11.97;;;4.03;;
80400;SDS011;69727;53.132;8.230;2023-05-10T05:14:13;8.57;;;4.03;;
80400;SDS011;69727;53.132;8.230;2023-05-10T05:16:38;10.70;;;3.78;;
80400;SDS011;69727;53.132;8.230;2023-05-10T05:19:04;6.30;;;2.80;;
80400;SDS011;69727;53.132;8.230;2023-05-10T05:21:29;7.97;;;3.10;;
80400;SDS011;69727;53.132;8.230;2023-05-10T05:23:54;8.85;;;3.58;;
80400;SDS011;69727;53.132;8.230;2023-05-10T05:26:20;8.50;;;3.83;;
80400;SDS011;69727;53.132;8.230;2023-05-10T05:28:46;9.95;;;3.67;;
80400;SDS011;69727;53.132;8.230;2023-05-10T05:31:13;10.95;;;4.28;;
80400;SDS011;69727;53.132;8.230;2023-05-10T05:33:38;14.40;;;4.90;;
80400;SDS011;69727;53.132;8.230;2023-05-10T05:36:04;15.77;;;5.03;;
80400;SDS011;69727;53.132;8.230;2023-05-10T05:38:30;13.55;;;5.18;;
80400;SDS011;69727;53.132;8.230;2023-05-10T05:40:56;11.68;;;4.35;;
80400;SDS011;69727;53.132;8.230;2023-05-10T05:43:21;14.40;;;5.18;;
80400;SDS011;69727;53.132;8.230;2023-05-10T05:45:47;13.93;;;5.40;;
80400;SDS011;69727;53.132;8.230;2023-05-10T05:48:12;18.52;;;7.00;;
80400;SDS011;69727;53.132;8.230;2023-05-10T05:50:38;15.57;;;6.38;;
80400;SDS011;69727;53.132;8.230;2023-05-10T05:53:03;16.03;;;5.90;;
80400;SDS011;69727;53.132;8.230;2023-05-10T05:55:29;17.13;;;5.83;;
80400;SDS011;69727;53.132;8.230;2023-05-10T05:57:56;14.85;;;5.90;;
80400;SDS011;69727;53.132;8.230;2023-05-10T06:00:22;16.55;;;6.30;;
80400;SDS011;69727;53.132;8.230;2023-05-10T06:02:47;16.10;;;6.07;;
80400;SDS011;69727;53.132;8.230;2023-05-10T06:05:13;17.83;;;6.40;;
80400;SDS011;69727;53.132;8.230;2023-05-10T06:07:39;16.85;;;6.72;;
80400;SDS011;69727;53.132;8.230;2023-05-10T06:10:07;20.02;;;7.05;;
80400;SDS011;69727;53.132;8.230;2023-05-10T06:12:33;21.92;;;7.43;;
80400;SDS011;69727;53.132;8.230;2023-05-10T06:14:59;21.50;;;7.65;;
80400;SDS011;69727;53.132;8.230;2023-05-10T06:17:24;17.47;;;7.00;;
80400;SDS011;69727;53.132;8.230;2023-05-10T06:19:50;18.48;;;7.18;;
80400;SDS011;69727;53.132;8.230;2023-05-10T06:22:15;20.93;;;7.27;;
80400;SDS011;69727;53.132;8.230;2023-05-10T06:24:40;17.43;;;6.50;;
80400;SDS011;69727;53.132;8.230;2023-05-10T06:27:06;17.38;;;6.53;;
80400;SDS011;69727;53.132;8.230;2023-05-10T06:29:32;16.98;;;6.75;;
80400;SDS011;69727;53.132;8.230;2023-05-10T06:31:57;24.48;;;8.02;;
80400;SDS011;69727;53.132;8.230;2023-05-10T06:34:23;18.30;;;7.25;;
80400;SDS011;69727;53.132;8.230;2023-05-10T06:36:49;16.27;;;6.72;;
80400;SDS011;69727;53.132;8.230;2023-05-10T06:39:14;20.10;;;7.40;;
80400;SDS011;69727;53.132;8.230;2023-05-10T06:41:40;23.80;;;7.45;;
80400;SDS011;69727;53.132;8.230;2023-05-10T06:44:06;29.35;;;8.82;;
80400;SDS011;69727;53.132;8.230;2023-05-10T06:46:32;28.02;;;8.13;;
80400;SDS011;69727;53.132;8.230;2023-05-10T06:48:57;20.17;;;7.70;;
80400;SDS011;69727;53.132;8.230;2023-05-10T06:51:23;21.23;;;7.33;;
80400;SDS011;69727;53.132;8.230;2023-05-10T06:53:48;25.02;;;7.40;;
80400;SDS011;69727;53.132;8.230;2023-05-10T06:56:14;23.70;;;7.63;;
80400;SDS011;69727;53.132;8.230;2023-05-10T06:58:39;19.93;;;7.40;;
80400;SDS011;69727;53.132;8.230;2023-05-10T07:01:04;30.88;;;7.63;;
80400;SDS011;69727;53.132;8.230;2023-05-10T07:03:31;26.60;;;8.05;;
80400;SDS011;69727;53.132;8.230;2023-05-10T07:06:03;25.85;;;7.78;;
80400;SDS011;69727;53.132;8.230;2023-05-10T07:08:30;28.80;;;9.18;;
80400;SDS011;69727;53.132;8.230;2023-05-10T07:11:02;27.92;;;8.27;;
80400;SDS011;69727;53.132;8.230;2023-05-10T07:13:29;21.73;;;8.02;;
80400;SDS011;69727;53.132;8.230;2023-05-10T07:15:56;24.65;;;8.63;;
80400;SDS011;69727;53.132;8.230;2023-05-10T07:18:21;17.07;;;7.20;;
80400;SDS011;69727;53.132;8.230;2023-05-10T07:20:46;22.60;;;8.53;;
80400;SDS011;69727;53.132;8.230;2023-05-10T07:23:12;18.60;;;8.40;;
80400;SDS011;69727;53.132;8.230;2023-05-10T07:25:37;18.60;;;7.80;;
80400;SDS011;69727;53.132;8.230;2023-05-10T07:28:03;23.40;;;8.93;;
80400;SDS011;69727;53.132;8.230;2023-05-10T07:30:28;22.90;;;8.45;;
80400;SDS011;69727;53.132;8.230;2023-05-10T07:32:53;23.67;;;8.50;;
80400;SDS011;69727;53.132;8.230;2023-05-10T07:35:19;34.70;;;9.40;;
80400;SDS011;69727;53.132;8.230;2023-05-10T07:37:44;22.20;;;7.80;;
80400;SDS011;69727;53.132;8.230;2023-05-10T07:40:10;17.95;;;8.27;;
80400;SDS011;69727;53.132;8.230;2023-05-10T07:42:35;22.75;;;8.48;;
80400;SDS011;69727;53.132;8.230;2023-05-10T07:45:01;18.83;;;7.30;;
80400;SDS011;69727;53.132;8.230;2023-05-10T07:47:26;13.80;;;6.75;;
80400;SDS011;69727;53.132;8.230;2023-05-10T07:49:52;13.77;;;5.97;;
80400;SDS011;69727;53.132;8.230;2023-05-10T07:52:17;15.07;;;7.25;;
80400;SDS011;69727;53.132;8.230;2023-05-10T07:54:43;11.50;;;5.93;;
80400;SDS011;69727;53.132;8.230;2023-05-10T07:57:08;16.67;;;6.20;;
80400;SDS011;69727;53.132;8.230;2023-05-10T07:59:33;15.33;;;5.83;;
80400;SDS011;69727;53.132;8.230;2023-05-10T08:01:59;14.35;;;5.50;;
80400;SDS011;69727;53.132;8.230;2023-05-10T08:04:24;12.07;;;5.83;;
80400;SDS011;69727;53.132;8.230;2023-05-10T08:06:50;13.48;;;5.95;;
80400;SDS011;69727;53.132;8.230;2023-05-10T08:09:15;13.35;;;5.30;;
80400;SDS011;69727;53.132;8.230;2023-05-10T08:11:41;12.70;;;6.03;;
80400;SDS011;69727;53.132;8.230;2023-05-10T08:14:06;12.20;;;5.50;;
80400;SDS011;69727;53.132;8.230;2023-05-10T08:16:31;14.43;;;6.40;;
80400;SDS011;69727;53.132;8.230;2023-05-10T08:18:57;12.10;;;5.45;;
80400;SDS011;69727;53.132;8.230;2023-05-10T08:21:22;13.03;;;6.03;;
80400;SDS011;69727;53.132;8.230;2023-05-10T08:23:48;11.63;;;5.20;;
80400;SDS011;69727;53.132;8.230;2023-05-10T08:26:14;13.00;;;6.03;;
80400;SDS011;69727;53.132;8.230;2023-05-10T08:28:39;17.33;;;6.22;;
80400;SDS011;69727;53.132;8.230;2023-05-10T08:31:05;12.43;;;5.30;;
80400;SDS011;69727;53.132;8.230;2023-05-10T08:33:30;14.55;;;5.95;;
80400;SDS011;69727;53.132;8.230;2023-05-10T08:35:56;17.33;;;6.53;;
80400;SDS011;69727;53.132;8.230;2023-05-10T08:38:21;13.87;;;5.63;;
80400;SDS011;69727;53.132;8.230;2023-05-10T08:40:46;15.23;;;6.03;;
80400;SDS011;69727;53.132;8.230;2023-05-10T08:43:14;12.38;;;5.30;;
80400;SDS011;69727;53.132;8.230;2023-05-10T08:45:42;11.55;;;5.13;;
80400;SDS011;69727;53.132;8.230;2023-05-10T08:48:09;12.52;;;5.45;;
80400;SDS011;69727;53.132;8.230;2023-05-10T08:50:38;14.75;;;5.55;;
80400;SDS011;69727;53.132;8.230;2023-05-10T08:53:09;13.05;;;5.35;;
80400;SDS011;69727;53.132;8.230;2023-05-10T08:55:36;12.55;;;5.50;;
80400;SDS011;69727;53.132;8.230;2023-05-10T08:58:03;18.35;;;5.38;;
80400;SDS011;69727;53.132;8.230;2023-05-10T09:00:29;12.73;;;5.05;;
80400;SDS011;69727;53.132;8.230;2023-05-10T09:02:55;11.75;;;5.22;;
80400;SDS011;69727;53.132;8.230;2023-05-10T09:05:22;12.30;;;4.97;;
80400;SDS011;69727;53.132;8.230;2023-05-10T09:07:48;13.93;;;5.63;;
80400;SDS011;69727;53.132;8.230;2023-05-10T09:10:13;13.88;;;4.97;;
80400;SDS011;69727;53.132;8.230;2023-05-10T09:12:40;13.65;;;4.78;;
80400;SDS011;69727;53.132;8.230;2023-05-10T09:15:06;10.75;;;4.72;;
80400;SDS011;69727;53.132;8.230;2023-05-10T09:17:34;11.27;;;4.72;;
80400;SDS011;69727;53.132;8.230;2023-05-10T09:20:00;17.58;;;5.97;;
80400;SDS011;69727;53.132;8.230;2023-05-10T09:22:26;12.63;;;5.28;;
80400;SDS011;69727;53.132;8.230;2023-05-10T09:27:29;12.90;;;5.32;;
80400;SDS011;69727;53.132;8.230;2023-05-10T09:29:55;13.77;;;4.90;;
80400;SDS011;69727;53.132;8.230;2023-05-10T09:32:20;17.35;;;5.72;;
80400;SDS011;69727;53.132;8.230;2023-05-10T09:34:46;13.93;;;5.87;;
80400;SDS011;69727;53.132;8.230;2023-05-10T09:37:15;11.43;;;4.78;;
80400;SDS011;69727;53.132;8.230;2023-05-10T09:39:40;13.95;;;5.47;;
80400;SDS011;69727;53.132;8.230;2023-05-10T09:42:09;11.68;;;4.90;;
80400;SDS011;69727;53.132;8.230;2023-05-10T09:44:35;13.05;;;5.32;;
80400;SDS011;69727;53.132;8.230;2023-05-10T09:47:01;13.38;;;5.38;;
80400;SDS011;69727;53.132;8.230;2023-05-10T09:49:27;10.55;;;4.70;;
80400;SDS011;69727;53.132;8.230;2023-05-10T09:52:11;9.88;;;4.53;;
80400;SDS011;69727;53.132;8.230;2023-05-10T09:54:36;13.13;;;4.65;;
80400;SDS011;69727;53.132;8.230;2023-05-10T09:57:01;12.47;;;5.13;;
80400;SDS011;69727;53.132;8.230;2023-05-10T09:59:27;11.27;;;4.30;;
80400;SDS011;69727;53.132;8.230;2023-05-10T10:01:57;8.18;;;2.75;;
80400;SDS011;69727;53.132;8.230;2023-05-10T10:04:24;5.55;;;2.10;;
80400;SDS011;69727;53.132;8.230;2023-05-10T10:06:59;5.88;;;2.22;;
80400;SDS011;69727;53.132;8.230;2023-05-10T10:09:25;5.95;;;2.10;;
80400;SDS011;69727;53.132;8.230;2023-05-10T10:11:51;4.93;;;1.83;;
80400;SDS011;69727;53.132;8.230;2023-05-10T10:14:21;4.93;;;2.20;;
80400;SDS011;69727;53.132;8.230;2023-05-10T10:16:48;6.13;;;2.40;;
80400;SDS011;69727;53.132;8.230;2023-05-10T10:19:15;3.58;;;1.60;;
80400;SDS011;69727;53.132;8.230;2023-05-10T10:21:40;4.10;;;1.70;;
80400;SDS011;69727;53.132;8.230;2023-05-10T10:24:05;5.30;;;1.20;;
80400;SDS011;69727;53.132;8.230;2023-05-10T10:26:34;1.75;;;0.73;;
80400;SDS011;69727;53.132;8.230;2023-05-10T10:31:53;2.75;;;1.02;;
80400;SDS011;69727;53.132;8.230;2023-05-10T10:34:27;2.00;;;0.82;;
80400;SDS011;69727;53.132;8.230;2023-05-10T10:36:55;2.83;;;1.17;;
80400;SDS011;69727;53.132;8.230;2023-05-10T10:39:21;2.53;;;1.15;;
80400;SDS011;69727;53.132;8.230;2023-05-10T10:41:56;3.25;;;1.40;;
80400;SDS011;69727;53.132;8.230;2023-05-10T10:49:42;2.70;;;1.08;;
80400;SDS011;69727;53.132;8.230;2023-05-10T10:55:06;1.88;;;0.85;;
80400;SDS011;69727;53.132;8.230;2023-05-10T11:02:54;1.77;;;0.80;;
80400;SDS011;69727;53.132;8.230;2023-05-10T11:05:34;3.40;;;0.90;;
80400;SDS011;69727;53.132;8.230;2023-05-10T11:10:49;1.60;;;0.70;;
80400;SDS011;69727;53.132;8.230;2023-05-10T11:13:17;1.52;;;0.70;;
80400;SDS011;69727;53.132;8.230;2023-05-10T11:18:41;1.13;;;0.50;;
80400;SDS011;69727;53.132;8.230;2023-05-10T11:21:18;1.65;;;0.52;;
80400;SDS011;69727;53.132;8.230;2023-05-10T11:26:08;2.03;;;0.87;;
80400;SDS011;69727;53.132;8.230;2023-05-10T11:28:40;3.00;;;1.00;;
80400;SDS011;69727;53.132;8.230;2023-05-10T11:31:06;4.82;;;1.73;;
80400;SDS011;69727;53.132;8.230;2023-05-10T11:33:41;6.28;;;2.85;;
80400;SDS011;69727;53.132;8.230;2023-05-10T11:36:14;9.68;;;3.95;;
80400;SDS011;69727;53.132;8.230;2023-05-10T11:38:44;9.48;;;5.40;;
80400;SDS011;69727;53.132;8.230;2023-05-10T11:41:11;10.82;;;5.82;;
80400;SDS011;69727;53.132;8.230;2023-05-10T11:43:40;12.40;;;6.70;;
80400;SDS011;69727;53.132;8.230;2023-05-10T11:46:09;15.63;;;8.23;;
80400;SDS011;69727;53.132;8.230;2023-05-10T11:48:40;14.18;;;7.60;;
80400;SDS011;69727;53.132;8.230;2023-05-10T11:51:09;16.55;;;8.27;;
80400;SDS011;69727;53.132;8.230;2023-05-10T11:53:36;17.92;;;8.82;;
80400;SDS011;69727;53.132;8.230;2023-05-10T11:56:09;19.73;;;9.40;;
80400;SDS011;69727;53.132;8.230;2023-05-10T11:58:35;19.52;;;10.77;;
80400;SDS011;69727;53.132;8.230;2023-05-10T12:01:02;19.60;;;10.48;;
80400;SDS011;69727;53.132;8.230;2023-05-10T12:03:30;13.55;;;8.05;;
80400;SDS011;69727;53.132;8.230;2023-05-10T12:05:56;16.48;;;8.77;;
80400;SDS011;69727;53.132;8.230;2023-05-10T12:08:25;16.70;;;9.23;;
80400;SDS011;69727;53.132;8.230;2023-05-10T12:10:52;20.17;;;9.65;;
80400;SDS011;69727;53.132;8.230;2023-05-10T12:13:19;14.98;;;8.52;;
80400;SDS011;69727;53.132;8.230;2023-05-10T12:15:46;15.70;;;8.88;;
80400;SDS011;69727;53.132;8.230;2023-05-10T12:18:12;16.58;;;8.93;;
80400;SDS011;69727;53.132;8.230;2023-05-10T12:20:47;21.75;;;10.27;;
80400;SDS011;69727;53.132;8.230;2023-05-10T12:23:12;19.02;;;9.43;;
80400;SDS011;69727;53.132;8.230;2023-05-10T12:25:38;16.95;;;8.63;;
80400;SDS011;69727;53.132;8.230;2023-05-10T12:28:04;14.48;;;8.93;;
80400;SDS011;69727;53.132;8.230;2023-05-10T12:33:11;14.77;;;8.02;;
80400;SDS011;69727;53.132;8.230;2023-05-10T12:35:50;18.63;;;9.63;;
80400;SDS011;69727;53.132;8.230;2023-05-10T12:38:37;18.15;;;9.77;;
80400;SDS011;69727;53.132;8.230;2023-05-10T12:41:12;20.17;;;9.68;;
80400;SDS011;69727;53.132;8.230;2023-05-10T12:43:38;17.83;;;9.65;;
80400;SDS011;69727;53.132;8.230;2023-05-10T12:46:11;19.35;;;10.45;;
80400;SDS011;69727;53.132;8.230;2023-05-10T12:48:41;22.05;;;10.70;;
80400;SDS011;69727;53.132;8.230;2023-05-10T12:51:08;17.63;;;10.35;;
80400;SDS011;69727;53.132;8.230;2023-05-10T12:53:38;16.27;;;8.82;;
80400;SDS011;69727;53.132;8.230;2023-05-10T12:56:04;12.23;;;8.20;;
80400;SDS011;69727;53.132;8.230;2023-05-10T12:58:30;14.52;;;8.82;;
80400;SDS011;69727;53.132;8.230;2023-05-10T13:00:57;15.07;;;8.95;;
80400;SDS011;69727;53.132;8.230;2023-05-10T13:03:23;13.48;;;8.30;;
80400;SDS011;69727;53.132;8.230;2023-05-10T13:05:48;14.23;;;8.90;;
80400;SDS011;69727;53.132;8.230;2023-05-10T13:08:14;15.10;;;9.25;;
80400;SDS011;69727;53.132;8.230;2023-05-10T13:10:39;14.70;;;9.20;;
80400;SDS011;69727;53.132;8.230;2023-05-10T13:13:08;17.65;;;10.38;;
80400;SDS011;69727;53.132;8.230;2023-05-10T13:15:36;22.02;;;10.88;;
80400;SDS011;69727;53.132;8.230;2023-05-10T13:18:02;17.75;;;10.45;;
80400;SDS011;69727;53.132;8.230;2023-05-10T13:20:27;15.80;;;9.48;;
80400;SDS011;69727;53.132;8.230;2023-05-10T13:22:53;12.50;;;8.13;;
80400;SDS011;69727;53.132;8.230;2023-05-10T13:25:18;13.40;;;8.15;;
80400;SDS011;69727;53.132;8.230;2023-05-10T13:27:44;12.57;;;7.93;;
80400;SDS011;69727;53.132;8.230;2023-05-10T13:30:10;10.35;;;7.50;;
80400;SDS011;69727;53.132;8.230;2023-05-10T13:32:36;6.55;;;4.68;;
80400;SDS011;69727;53.132;8.230;2023-05-10T13:35:01;6.50;;;4.43;;
80400;SDS011;69727;53.132;8.230;2023-05-10T13:37:30;5.97;;;4.03;;
80400;SDS011;69727;53.132;8.230;2023-05-10T13:39:57;5.38;;;3.70;;
80400;SDS011;69727;53.132;8.230;2023-05-10T13:42:22;6.53;;;3.88;;
80400;SDS011;69727;53.132;8.230;2023-05-10T13:44:48;5.45;;;3.47;;
80400;SDS011;69727;53.132;8.230;2023-05-10T13:47:18;6.75;;;3.70;;
80400;SDS011;69727;53.132;8.230;2023-05-10T13:49:47;9.70;;;5.03;;
80400;SDS011;69727;53.132;8.230;2023-05-10T13:52:12;9.35;;;5.68;;
80400;SDS011;69727;53.132;8.230;2023-05-10T13:54:38;8.38;;;5.18;;
80400;SDS011;69727;53.132;8.230;2023-05-10T13:57:06;9.65;;;5.80;;
80400;SDS011;69727;53.132;8.230;2023-05-10T13:59:32;7.15;;;5.22;;
80400;SDS011;69727;53.132;8.230;2023-05-10T14:01:58;7.80;;;5.35;;
80400;SDS011;69727;53.132;8.230;2023-05-10T14:04:24;5.85;;;3.85;;
80400;SDS011;69727;53.132;8.230;2023-05-10T14:06:49;8.30;;;3.85;;
80400;SDS011;69727;53.132;8.230;2023-05-10T14:09:15;6.07;;;3.63;;
80400;SDS011;69727;53.132;8.230;2023-05-10T14:11:41;5.13;;;3.10;;
80400;SDS011;69727;53.132;8.230;2023-05-10T14:14:08;4.88;;;2.92;;
80400;SDS011;69727;53.132;8.230;2023-05-10T14:16:34;5.00;;;2.90;;
80400;SDS011;69727;53.132;8.230;2023-05-10T14:18:59;7.63;;;3.20;;
80400;SDS011;69727;53.132;8.230;2023-05-10T14:21:25;5.20;;;3.45;;
80400;SDS011;69727;53.132;8.230;2023-05-10T14:23:50;4.63;;;3.10;;
80400;SDS011;69727;53.132;8.230;2023-05-10T14:26:16;5.50;;;3.37;;
80400;SDS011;69727;53.132;8.230;2023-05-10T14:28:41;5.53;;;3.72;;
80400;SDS011;69727;53.132;8.230;2023-05-10T14:31:07;6.47;;;3.95;;
80400;SDS011;69727;53.132;8.230;2023-05-10T14:33:32;5.00;;;2.67;;
80400;SDS011;69727;53.132;8.230;2023-05-10T14:35:58;4.70;;;2.50;;
80400;SDS011;69727;53.132;8.230;2023-05-10T14:38:24;5.07;;;2.55;;
80400;SDS011;69727;53.132;8.230;2023-05-10T14:40:50;7.63;;;2.53;;
80400;SDS011;69727;53.132;8.230;2023-05-10T14:43:15;5.83;;;2.60;;
80400;SDS011;69727;53.132;8.230;2023-05-10T14:45:40;5.83;;;2.47;;
80400;SDS011;69727;53.132;8.230;2023-05-10T14:48:06;5.88;;;2.72;;
80400;SDS011;69727;53.132;8.230;2023-05-10T14:50:36;5.03;;;2.70;;
80400;SDS011;69727;53.132;8.230;2023-05-10T14:53:01;4.63;;;2.40;;
80400;SDS011;69727;53.132;8.230;2023-05-10T14:55:27;4.82;;;2.53;;
80400;SDS011;69727;53.132;8.230;2023-05-10T14:57:52;4.18;;;2.28;;
80400;SDS011;69727;53.132;8.230;2023-05-10T15:00:18;4.55;;;2.55;;
80400;SDS011;69727;53.132;8.230;2023-05-10T15:02:44;5.20;;;2.70;;
80400;SDS011;69727;53.132;8.230;2023-05-10T15:05:09;4.15;;;2.10;;
80400;SDS011;69727;53.132;8.230;2023-05-10T15:07:35;4.43;;;2.30;;
80400;SDS011;69727;53.132;8.230;2023-05-10T15:10:00;5.43;;;2.27;;
80400;SDS011;69727;53.132;8.230;2023-05-10T15:12:26;3.70;;;2.00;;
80400;SDS011;69727;53.132;8.230;2023-05-10T15:14:51;3.90;;;1.88;;
80400;SDS011;69727;53.132;8.230;2023-05-10T15:17:17;4.05;;;1.75;;
80400;SDS011;69727;53.132;8.230;2023-05-10T15:19:42;5.82;;;2.40;;
80400;SDS011;69727;53.132;8.230;2023-05-10T15:22:08;4.70;;;2.33;;
80400;SDS011;69727;53.132;8.230;2023-05-10T15:24:33;4.10;;;2.15;;
80400;SDS011;69727;53.132;8.230;2023-05-10T15:26:59;4.57;;;2.22;;
80400;SDS011;69727;53.132;8.230;2023-05-10T15:29:25;5.15;;;1.90;;
80400;SDS011;69727;53.132;8.230;2023-05-10T15:31:50;4.25;;;1.75;;